sensor_id;sensor_type;location;lat;lon;timestamp;temperature;humidity
70548;DHT22;58099;43.406;3.698;2022-09-16T00:02:01;23.20;99.90
70548;DHT22;58099;43.406;3.698;2022-09-16T00:04:27;23.20;99.90
70548;DHT22;58099;43.406;3.698;2022-09-16T00:06:53;23.20;99.90
70548;DHT22;58099;43.406;3.698;2022-09-16T00:09:19;23.20;99.90
70548;DHT22;58099;43.406;3.698;2022-09-16T00:11:44;23.10;99.90
70548;DHT22;58099;43.406;3.698;2022-09-16T00:14:10;23.10;99.90
70548;DHT22;58099;43.406;3.698;2022-09-16T00:16:36;23.10;99.90
70548;DHT22;58099;43.406;3.698;2022-09-16T00:19:02;23.10;99.90
70548;DHT22;58099;43.406;3.698;2022-09-16T00:21:28;23.00;99.90
70548;DHT22;58099;43.406;3.698;2022-09-16T00:23:54;23.00;99.90
70548;DHT22;58099;43.406;3.698;2022-09-16T00:26:20;23.00;99.90
70548;DHT22;58099;43.406;3.698;2022-09-16T00:28:49;23.00;99.90
70548;DHT22;58099;43.406;3.698;2022-09-16T00:31:16;23.00;99.90
70548;DHT22;58099;43.406;3.698;2022-09-16T00:33:42;22.90;99.90
70548;DHT22;58099;43.406;3.698;2022-09-16T00:36:13;22.90;99.90
70548;DHT22;58099;43.406;3.698;2022-09-16T00:38:39;22.90;99.90
70548;DHT22;58099;43.406;3.698;2022-09-16T00:41:06;22.90;99.90
70548;DHT22;58099;43.406;3.698;2022-09-16T00:43:58;22.90;99.90
70548;DHT22;58099;43.406;3.698;2022-09-16T00:49:15;22.90;99.90
70548;DHT22;58099;43.406;3.698;2022-09-16T00:51:44;22.80;99.90
70548;DHT22;58099;43.406;3.698;2022-09-16T00:54:12;22.90;99.90
70548;DHT22;58099;43.406;3.698;2022-09-16T00:56:41;22.90;99.90
70548;DHT22;58099;43.406;3.698;2022-09-16T00:59:21;22.80;99.90
70548;DHT22;58099;43.406;3.698;2022-09-16T01:01:50;22.80;99.90
70548;DHT22;58099;43.406;3.698;2022-09-16T01:04:24;22.80;99.90
70548;DHT22;58099;43.406;3.698;2022-09-16T01:06:51;22.70;99.90
70548;DHT22;58099;43.406;3.698;2022-09-16T01:09:20;22.70;99.90
70548;DHT22;58099;43.406;3.698;2022-09-16T01:11:46;22.70;99.90
70548;DHT22;58099;43.406;3.698;2022-09-16T01:14:12;22.70;99.90
70548;DHT22;58099;43.406;3.698;2022-09-16T01:36:54;22.50;99.90
70548;DHT22;58099;43.406;3.698;2022-09-16T01:42:39;22.50;99.90
70548;DHT22;58099;43.406;3.698;2022-09-16T01:48:07;22.50;99.90
70548;DHT22;58099;43.406;3.698;2022-09-16T01:50:41;22.40;99.90
70548;DHT22;58099;43.406;3.698;2022-09-16T01:53:33;22.40;99.90
70548;DHT22;58099;43.406;3.698;2022-09-16T02:02:09;22.40;99.90
70548;DHT22;58099;43.406;3.698;2022-09-16T02:04:46;22.30;99.90
70548;DHT22;58099;43.406;3.698;2022-09-16T02:07:16;22.30;99.90
70548;DHT22;58099;43.406;3.698;2022-09-16T02:09:48;22.30;99.90
70548;DHT22;58099;43.406;3.698;2022-09-16T02:12:21;22.20;99.90
70548;DHT22;58099;43.406;3.698;2022-09-16T02:14:50;22.20;99.90
70548;DHT22;58099;43.406;3.698;2022-09-16T02:17:20;22.20;99.90
70548;DHT22;58099;43.406;3.698;2022-09-16T02:19:55;22.20;99.90
70548;DHT22;58099;43.406;3.698;2022-09-16T02:22:31;22.20;99.90
70548;DHT22;58099;43.406;3.698;2022-09-16T02:25:00;22.20;99.90
70548;DHT22;58099;43.406;3.698;2022-09-16T02:27:28;22.10;99.90
70548;DHT22;58099;43.406;3.698;2022-09-16T02:30:06;22.10;99.90
70548;DHT22;58099;43.406;3.698;2022-09-16T02:32:35;22.10;99.90
70548;DHT22;58099;43.406;3.698;2022-09-16T02:35:04;22.00;99.90
70548;DHT22;58099;43.406;3.698;2022-09-16T02:37:38;22.00;99.90
70548;DHT22;58099;43.406;3.698;2022-09-16T02:40:10;21.90;99.90
70548;DHT22;58099;43.406;3.698;2022-09-16T02:42:36;21.90;99.90
70548;DHT22;58099;43.406;3.698;2022-09-16T02:45:03;21.90;99.90
70548;DHT22;58099;43.406;3.698;2022-09-16T02:50:33;21.90;99.90
70548;DHT22;58099;43.406;3.698;2022-09-16T02:53:22;22.00;99.90
70548;DHT22;58099;43.406;3.698;2022-09-16T02:56:48;21.90;99.90
70548;DHT22;58099;43.406;3.698;2022-09-16T02:59:10;21.90;99.90
70548;DHT22;58099;43.406;3.698;2022-09-16T03:01:41;21.90;99.90
70548;DHT22;58099;43.406;3.698;2022-09-16T03:04:11;21.90;99.90
70548;DHT22;58099;43.406;3.698;2022-09-16T03:06:38;21.90;99.90
70548;DHT22;58099;43.406;3.698;2022-09-16T03:09:06;21.80;99.90
70548;DHT22;58099;43.406;3.698;2022-09-16T03:22:43;21.70;99.90
70548;DHT22;58099;43.406;3.698;2022-09-16T03:26:02;21.70;99.90
70548;DHT22;58099;43.406;3.698;2022-09-16T03:34:25;21.70;99.90
70548;DHT22;58099;43.406;3.698;2022-09-16T03:36:57;21.60;99.90
70548;DHT22;58099;43.406;3.698;2022-09-16T03:39:25;21.60;99.90
70548;DHT22;58099;43.406;3.698;2022-09-16T03:41:50;21.70;99.90
70548;DHT22;58099;43.406;3.698;2022-09-16T03:44:16;21.60;99.90
70548;DHT22;58099;43.406;3.698;2022-09-16T03:46:42;21.60;99.90
70548;DHT22;58099;43.406;3.698;2022-09-16T03:49:08;21.50;99.90
70548;DHT22;58099;43.406;3.698;2022-09-16T03:51:33;21.50;99.90
70548;DHT22;58099;43.406;3.698;2022-09-16T03:53:59;21.50;99.90
70548;DHT22;58099;43.406;3.698;2022-09-16T03:56:25;21.50;99.90
70548;DHT22;58099;43.406;3.698;2022-09-16T03:58:51;21.50;99.90
70548;DHT22;58099;43.406;3.698;2022-09-16T04:01:17;21.40;99.90
70548;DHT22;58099;43.406;3.698;2022-09-16T04:03:42;21.50;99.90
70548;DHT22;58099;43.406;3.698;2022-09-16T04:06:08;21.40;99.90
70548;DHT22;58099;43.406;3.698;2022-09-16T04:08:34;21.50;99.90
70548;DHT22;58099;43.406;3.698;2022-09-16T04:11:02;21.40;99.90
70548;DHT22;58099;43.406;3.698;2022-09-16T04:13:31;21.40;99.90
70548;DHT22;58099;43.406;3.698;2022-09-16T04:15:58;21.40;99.90
70548;DHT22;58099;43.406;3.698;2022-09-16T04:18:23;21.30;99.90
70548;DHT22;58099;43.406;3.698;2022-09-16T04:20:49;21.30;99.90
70548;DHT22;58099;43.406;3.698;2022-09-16T04:23:15;21.30;99.90
70548;DHT22;58099;43.406;3.698;2022-09-16T04:25:40;21.20;99.90
70548;DHT22;58099;43.406;3.698;2022-09-16T04:28:07;21.10;99.90
70548;DHT22;58099;43.406;3.698;2022-09-16T04:30:32;21.10;99.90
70548;DHT22;58099;43.406;3.698;2022-09-16T04:32:58;21.00;99.90
70548;DHT22;58099;43.406;3.698;2022-09-16T04:35:24;21.00;99.90
70548;DHT22;58099;43.406;3.698;2022-09-16T04:37:51;21.10;99.90
70548;DHT22;58099;43.406;3.698;2022-09-16T04:40:17;21.10;99.90
70548;DHT22;58099;43.406;3.698;2022-09-16T04:42:50;21.10;99.90
70548;DHT22;58099;43.406;3.698;2022-09-16T04:45:16;21.10;99.90
70548;DHT22;58099;43.406;3.698;2022-09-16T04:47:42;21.10;99.90
70548;DHT22;58099;43.406;3.698;2022-09-16T04:50:08;21.10;99.90
70548;DHT22;58099;43.406;3.698;2022-09-16T04:52:33;21.10;99.90
70548;DHT22;58099;43.406;3.698;2022-09-16T04:54:59;21.20;99.90
70548;DHT22;58099;43.406;3.698;2022-09-16T04:57:25;21.10;99.90
70548;DHT22;58099;43.406;3.698;2022-09-16T04:59:54;21.10;99.90
70548;DHT22;58099;43.406;3.698;2022-09-16T05:02:19;21.00;99.90
70548;DHT22;58099;43.406;3.698;2022-09-16T05:04:45;21.00;99.90
70548;DHT22;58099;43.406;3.698;2022-09-16T05:07:11;20.90;99.90
70548;DHT22;58099;43.406;3.698;2022-09-16T05:09:36;20.90;99.90
70548;DHT22;58099;43.406;3.698;2022-09-16T05:12:02;20.90;99.90
70548;DHT22;58099;43.406;3.698;2022-09-16T05:14:28;20.90;99.90
70548;DHT22;58099;43.406;3.698;2022-09-16T05:16:53;20.90;99.90
70548;DHT22;58099;43.406;3.698;2022-09-16T05:19:19;20.90;99.90
70548;DHT22;58099;43.406;3.698;2022-09-16T05:21:45;20.90;99.90
70548;DHT22;58099;43.406;3.698;2022-09-16T05:24:12;20.90;99.90
70548;DHT22;58099;43.406;3.698;2022-09-16T05:26:39;21.10;99.90
70548;DHT22;58099;43.406;3.698;2022-09-16T05:29:12;21.00;99.90
70548;DHT22;58099;43.406;3.698;2022-09-16T05:31:40;21.20;99.90
70548;DHT22;58099;43.406;3.698;2022-09-16T05:36:36;21.50;99.90
70548;DHT22;58099;43.406;3.698;2022-09-16T05:39:05;21.40;99.90
70548;DHT22;58099;43.406;3.698;2022-09-16T05:41:31;21.50;99.90
70548;DHT22;58099;43.406;3.698;2022-09-16T05:43:58;21.60;99.90
70548;DHT22;58099;43.406;3.698;2022-09-16T05:46:25;21.50;99.90
70548;DHT22;58099;43.406;3.698;2022-09-16T05:48:50;21.40;99.90
70548;DHT22;58099;43.406;3.698;2022-09-16T05:51:19;21.40;99.90
70548;DHT22;58099;43.406;3.698;2022-09-16T05:53:46;21.50;99.90
70548;DHT22;58099;43.406;3.698;2022-09-16T05:56:17;21.40;99.90
70548;DHT22;58099;43.406;3.698;2022-09-16T05:58:43;21.40;99.90
70548;DHT22;58099;43.406;3.698;2022-09-16T06:01:15;21.40;99.90
70548;DHT22;58099;43.406;3.698;2022-09-16T06:03:43;21.50;99.90
70548;DHT22;58099;43.406;3.698;2022-09-16T06:06:45;21.60;99.90
70548;DHT22;58099;43.406;3.698;2022-09-16T06:09:06;21.70;99.90
70548;DHT22;58099;43.406;3.698;2022-09-16T06:11:35;21.70;99.90
70548;DHT22;58099;43.406;3.698;2022-09-16T06:14:01;21.90;99.90
70548;DHT22;58099;43.406;3.698;2022-09-16T06:16:28;22.00;99.90
70548;DHT22;58099;43.406;3.698;2022-09-16T06:18:58;22.00;99.90
70548;DHT22;58099;43.406;3.698;2022-09-16T06:21:24;22.10;99.90
70548;DHT22;58099;43.406;3.698;2022-09-16T06:23:51;22.30;99.90
70548;DHT22;58099;43.406;3.698;2022-09-16T06:26:20;22.10;99.90
70548;DHT22;58099;43.406;3.698;2022-09-16T06:28:47;22.20;99.90
70548;DHT22;58099;43.406;3.698;2022-09-16T06:31:23;22.40;99.90
70548;DHT22;58099;43.406;3.698;2022-09-16T06:33:50;22.50;99.90
70548;DHT22;58099;43.406;3.698;2022-09-16T06:36:23;22.40;99.90
70548;DHT22;58099;43.406;3.698;2022-09-16T06:38:50;22.50;99.90
70548;DHT22;58099;43.406;3.698;2022-09-16T06:41:17;22.60;99.90
70548;DHT22;58099;43.406;3.698;2022-09-16T06:43:43;22.70;99.90
70548;DHT22;58099;43.406;3.698;2022-09-16T06:46:13;22.70;99.90
70548;DHT22;58099;43.406;3.698;2022-09-16T06:48:41;22.70;99.90
70548;DHT22;58099;43.406;3.698;2022-09-16T06:51:12;22.80;99.90
70548;DHT22;58099;43.406;3.698;2022-09-16T06:53:39;22.80;99.90
70548;DHT22;58099;43.406;3.698;2022-09-16T06:56:11;22.90;99.90
70548;DHT22;58099;43.406;3.698;2022-09-16T06:58:39;23.00;99.90
70548;DHT22;58099;43.406;3.698;2022-09-16T07:01:13;23.00;99.90
70548;DHT22;58099;43.406;3.698;2022-09-16T07:03:41;23.10;99.90
70548;DHT22;58099;43.406;3.698;2022-09-16T07:06:08;23.20;99.90
70548;DHT22;58099;43.406;3.698;2022-09-16T07:08:35;23.30;99.90
70548;DHT22;58099;43.406;3.698;2022-09-16T07:11:06;23.40;99.90
70548;DHT22;58099;43.406;3.698;2022-09-16T07:13:33;23.30;99.90
70548;DHT22;58099;43.406;3.698;2022-09-16T07:16:00;23.30;99.90
70548;DHT22;58099;43.406;3.698;2022-09-16T07:18:29;23.30;99.90
70548;DHT22;58099;43.406;3.698;2022-09-16T07:21:11;23.30;99.90
70548;DHT22;58099;43.406;3.698;2022-09-16T07:23:37;23.40;99.90
70548;DHT22;58099;43.406;3.698;2022-09-16T07:26:09;23.30;99.90
70548;DHT22;58099;43.406;3.698;2022-09-16T07:28:36;23.50;99.90
70548;DHT22;58099;43.406;3.698;2022-09-16T07:31:05;23.70;99.90
70548;DHT22;58099;43.406;3.698;2022-09-16T07:33:34;24.10;99.90
70548;DHT22;58099;43.406;3.698;2022-09-16T07:36:00;24.40;99.90
70548;DHT22;58099;43.406;3.698;2022-09-16T07:38:28;24.60;99.90
70548;DHT22;58099;43.406;3.698;2022-09-16T07:40:54;24.80;99.90
70548;DHT22;58099;43.406;3.698;2022-09-16T07:43:20;25.00;99.90
70548;DHT22;58099;43.406;3.698;2022-09-16T07:45:53;25.20;99.90
70548;DHT22;58099;43.406;3.698;2022-09-16T07:48:19;25.30;99.90
70548;DHT22;58099;43.406;3.698;2022-09-16T07:51:14;25.30;99.90
70548;DHT22;58099;43.406;3.698;2022-09-16T07:53:38;25.50;99.90
70548;DHT22;58099;43.406;3.698;2022-09-16T07:56:12;25.60;99.90
70548;DHT22;58099;43.406;3.698;2022-09-16T07:58:39;25.70;99.90
70548;DHT22;58099;43.406;3.698;2022-09-16T08:01:06;26.00;99.90
70548;DHT22;58099;43.406;3.698;2022-09-16T08:03:34;26.10;99.90
70548;DHT22;58099;43.406;3.698;2022-09-16T08:06:05;26.20;99.90
70548;DHT22;58099;43.406;3.698;2022-09-16T08:08:31;26.30;99.80
70548;DHT22;58099;43.406;3.698;2022-09-16T08:10:58;26.50;99.70
70548;DHT22;58099;43.406;3.698;2022-09-16T08:13:25;26.60;99.10
70548;DHT22;58099;43.406;3.698;2022-09-16T08:15:52;26.60;99.20
70548;DHT22;58099;43.406;3.698;2022-09-16T08:18:18;26.60;98.60
70548;DHT22;58099;43.406;3.698;2022-09-16T08:20:44;26.70;98.50
70548;DHT22;58099;43.406;3.698;2022-09-16T08:23:10;26.70;98.10
70548;DHT22;58099;43.406;3.698;2022-09-16T08:25:35;26.90;98.00
70548;DHT22;58099;43.406;3.698;2022-09-16T08:28:02;27.00;97.70
70548;DHT22;58099;43.406;3.698;2022-09-16T08:30:29;26.90;97.70
70548;DHT22;58099;43.406;3.698;2022-09-16T08:32:58;26.90;97.70
70548;DHT22;58099;43.406;3.698;2022-09-16T08:35:24;26.90;97.50
70548;DHT22;58099;43.406;3.698;2022-09-16T08:37:51;27.20;97.60
70548;DHT22;58099;43.406;3.698;2022-09-16T08:40:20;27.30;97.50
70548;DHT22;58099;43.406;3.698;2022-09-16T08:43:26;27.40;97.20
70548;DHT22;58099;43.406;3.698;2022-09-16T08:46:00;27.40;97.20
70548;DHT22;58099;43.406;3.698;2022-09-16T08:51:13;27.70;96.50
70548;DHT22;58099;43.406;3.698;2022-09-16T08:56:37;28.00;96.40
70548;DHT22;58099;43.406;3.698;2022-09-16T08:59:12;28.20;96.40
70548;DHT22;58099;43.406;3.698;2022-09-16T09:01:56;28.10;96.30
70548;DHT22;58099;43.406;3.698;2022-09-16T09:04:25;28.40;96.10
70548;DHT22;58099;43.406;3.698;2022-09-16T09:15:40;28.30;94.70
70548;DHT22;58099;43.406;3.698;2022-09-16T09:23:21;28.40;94.60
70548;DHT22;58099;43.406;3.698;2022-09-16T09:42:50;29.40;92.90
70548;DHT22;58099;43.406;3.698;2022-09-16T09:45:32;29.50;92.20
70548;DHT22;58099;43.406;3.698;2022-09-16T09:48:21;29.40;91.60
70548;DHT22;58099;43.406;3.698;2022-09-16T09:50:48;29.40;91.90
70548;DHT22;58099;43.406;3.698;2022-09-16T09:53:24;29.70;92.00
70548;DHT22;58099;43.406;3.698;2022-09-16T09:56:24;29.90;91.50
70548;DHT22;58099;43.406;3.698;2022-09-16T09:59:15;29.60;91.20
70548;DHT22;58099;43.406;3.698;2022-09-16T10:01:43;29.80;91.20
70548;DHT22;58099;43.406;3.698;2022-09-16T10:04:14;29.70;90.90
70548;DHT22;58099;43.406;3.698;2022-09-16T10:06:41;29.70;90.80
70548;DHT22;58099;43.406;3.698;2022-09-16T10:09:11;29.80;90.60
70548;DHT22;58099;43.406;3.698;2022-09-16T10:11:47;29.90;90.60
70548;DHT22;58099;43.406;3.698;2022-09-16T10:14:29;29.90;90.30
70548;DHT22;58099;43.406;3.698;2022-09-16T10:16:59;30.10;90.80
70548;DHT22;58099;43.406;3.698;2022-09-16T10:19:26;30.10;90.30
70548;DHT22;58099;43.406;3.698;2022-09-16T10:21:55;30.10;90.00
70548;DHT22;58099;43.406;3.698;2022-09-16T10:24:35;30.20;89.00
70548;DHT22;58099;43.406;3.698;2022-09-16T10:27:20;30.10;89.20
70548;DHT22;58099;43.406;3.698;2022-09-16T10:29:47;30.30;88.70
70548;DHT22;58099;43.406;3.698;2022-09-16T10:32:19;30.40;88.50
70548;DHT22;58099;43.406;3.698;2022-09-16T10:34:45;30.30;88.30
70548;DHT22;58099;43.406;3.698;2022-09-16T10:39:39;30.70;86.80
70548;DHT22;58099;43.406;3.698;2022-09-16T10:42:24;30.80;87.10
70548;DHT22;58099;43.406;3.698;2022-09-16T10:44:52;30.50;86.20
70548;DHT22;58099;43.406;3.698;2022-09-16T10:47:25;30.50;86.70
70548;DHT22;58099;43.406;3.698;2022-09-16T10:49:58;30.80;85.90
70548;DHT22;58099;43.406;3.698;2022-09-16T10:52:41;31.00;86.10
70548;DHT22;58099;43.406;3.698;2022-09-16T10:55:29;30.70;86.70
70548;DHT22;58099;43.406;3.698;2022-09-16T10:58:15;30.60;86.80
70548;DHT22;58099;43.406;3.698;2022-09-16T11:04:08;30.80;86.90
70548;DHT22;58099;43.406;3.698;2022-09-16T11:17:33;30.80;86.50
70548;DHT22;58099;43.406;3.698;2022-09-16T11:23:01;30.70;85.90
70548;DHT22;58099;43.406;3.698;2022-09-16T11:25:42;30.80;85.80
70548;DHT22;58099;43.406;3.698;2022-09-16T11:28:46;30.50;84.60
70548;DHT22;58099;43.406;3.698;2022-09-16T11:31:33;30.90;84.80
70548;DHT22;58099;43.406;3.698;2022-09-16T11:39:13;31.20;82.90
70548;DHT22;58099;43.406;3.698;2022-09-16T11:44:37;31.50;82.10
70548;DHT22;58099;43.406;3.698;2022-09-16T11:47:23;31.50;82.20
70548;DHT22;58099;43.406;3.698;2022-09-16T12:00:49;31.60;82.30
70548;DHT22;58099;43.406;3.698;2022-09-16T12:03:29;31.70;80.90
70548;DHT22;58099;43.406;3.698;2022-09-16T12:06:04;31.80;80.30
70548;DHT22;58099;43.406;3.698;2022-09-16T12:08:52;31.90;80.20
70548;DHT22;58099;43.406;3.698;2022-09-16T12:16:46;31.90;80.00
70548;DHT22;58099;43.406;3.698;2022-09-16T12:19:57;31.90;80.40
70548;DHT22;58099;43.406;3.698;2022-09-16T12:22:22;31.90;80.10
70548;DHT22;58099;43.406;3.698;2022-09-16T12:25:02;32.00;79.90
70548;DHT22;58099;43.406;3.698;2022-09-16T12:27:39;31.90;79.80
70548;DHT22;58099;43.406;3.698;2022-09-16T12:30:18;31.60;79.50
70548;DHT22;58099;43.406;3.698;2022-09-16T12:35:31;32.00;79.10
70548;DHT22;58099;43.406;3.698;2022-09-16T12:37:58;31.90;79.10
70548;DHT22;58099;43.406;3.698;2022-09-16T12:40:32;31.90;78.20
70548;DHT22;58099;43.406;3.698;2022-09-16T12:51:12;31.70;78.80
70548;DHT22;58099;43.406;3.698;2022-09-16T12:53:46;31.80;78.70
70548;DHT22;58099;43.406;3.698;2022-09-16T13:01:40;31.70;77.50
70548;DHT22;58099;43.406;3.698;2022-09-16T13:04:20;31.40;77.20
70548;DHT22;58099;43.406;3.698;2022-09-16T13:06:52;31.40;77.50
70548;DHT22;58099;43.406;3.698;2022-09-16T13:09:23;31.40;77.70
70548;DHT22;58099;43.406;3.698;2022-09-16T13:11:58;31.40;77.10
70548;DHT22;58099;43.406;3.698;2022-09-16T13:14:31;31.30;77.10
70548;DHT22;58099;43.406;3.698;2022-09-16T13:17:00;31.10;77.30
70548;DHT22;58099;43.406;3.698;2022-09-16T13:19:48;31.30;78.70
70548;DHT22;58099;43.406;3.698;2022-09-16T13:34:01;31.30;76.50
70548;DHT22;58099;43.406;3.698;2022-09-16T13:38:57;31.20;76.20
70548;DHT22;58099;43.406;3.698;2022-09-16T13:44:00;31.50;78.00
70548;DHT22;58099;43.406;3.698;2022-09-16T13:51:46;31.60;75.90
70548;DHT22;58099;43.406;3.698;2022-09-16T13:54:39;31.70;76.50
70548;DHT22;58099;43.406;3.698;2022-09-16T14:02:54;31.90;77.20
70548;DHT22;58099;43.406;3.698;2022-09-16T14:08:55;31.70;76.90
70548;DHT22;58099;43.406;3.698;2022-09-16T14:14:27;31.40;76.50
70548;DHT22;58099;43.406;3.698;2022-09-16T14:16:53;31.60;76.00
70548;DHT22;58099;43.406;3.698;2022-09-16T14:19:25;31.20;75.50
70548;DHT22;58099;43.406;3.698;2022-09-16T14:22:01;31.00;77.20
70548;DHT22;58099;43.406;3.698;2022-09-16T14:24:36;30.90;76.30
70548;DHT22;58099;43.406;3.698;2022-09-16T14:27:02;31.10;76.40
70548;DHT22;58099;43.406;3.698;2022-09-16T14:29:31;31.30;76.40
70548;DHT22;58099;43.406;3.698;2022-09-16T14:31:57;31.20;76.30
70548;DHT22;58099;43.406;3.698;2022-09-16T14:36:52;31.20;78.00
70548;DHT22;58099;43.406;3.698;2022-09-16T14:39:20;31.20;78.20
70548;DHT22;58099;43.406;3.698;2022-09-16T14:41:49;31.30;77.60
70548;DHT22;58099;43.406;3.698;2022-09-16T14:47:00;31.50;76.30
70548;DHT22;58099;43.406;3.698;2022-09-16T14:49:27;31.50;76.20
70548;DHT22;58099;43.406;3.698;2022-09-16T14:51:59;31.70;77.00
70548;DHT22;58099;43.406;3.698;2022-09-16T14:54:29;31.60;76.80
70548;DHT22;58099;43.406;3.698;2022-09-16T14:59:31;30.60;76.60
70548;DHT22;58099;43.406;3.698;2022-09-16T15:02:07;30.30;77.00
70548;DHT22;58099;43.406;3.698;2022-09-16T15:04:39;29.90;77.60
70548;DHT22;58099;43.406;3.698;2022-09-16T15:07:12;29.50;77.50
70548;DHT22;58099;43.406;3.698;2022-09-16T15:10:00;29.50;78.10
70548;DHT22;58099;43.406;3.698;2022-09-16T15:12:31;30.00;78.60
70548;DHT22;58099;43.406;3.698;2022-09-16T15:14:57;30.10;78.20
70548;DHT22;58099;43.406;3.698;2022-09-16T15:17:27;30.10;78.80
70548;DHT22;58099;43.406;3.698;2022-09-16T15:19:56;30.00;78.50
70548;DHT22;58099;43.406;3.698;2022-09-16T15:22:23;29.70;78.40
70548;DHT22;58099;43.406;3.698;2022-09-16T15:24:52;29.60;78.30
70548;DHT22;58099;43.406;3.698;2022-09-16T15:27:29;29.70;78.80
70548;DHT22;58099;43.406;3.698;2022-09-16T15:29:58;29.80;78.20
70548;DHT22;58099;43.406;3.698;2022-09-16T15:32:26;30.00;77.90
70548;DHT22;58099;43.406;3.698;2022-09-16T15:35:12;30.00;77.80
70548;DHT22;58099;43.406;3.698;2022-09-16T15:37:41;29.80;77.70
70548;DHT22;58099;43.406;3.698;2022-09-16T15:40:21;29.90;78.00
70548;DHT22;58099;43.406;3.698;2022-09-16T15:42:59;29.90;78.80
70548;DHT22;58099;43.406;3.698;2022-09-16T15:45:26;29.60;78.60
70548;DHT22;58099;43.406;3.698;2022-09-16T15:50:26;29.70;79.50
70548;DHT22;58099;43.406;3.698;2022-09-16T15:57:59;29.50;80.20
70548;DHT22;58099;43.406;3.698;2022-09-16T16:00:26;29.30;80.30
70548;DHT22;58099;43.406;3.698;2022-09-16T16:02:56;29.30;80.60
70548;DHT22;58099;43.406;3.698;2022-09-16T16:05:29;29.30;80.80
70548;DHT22;58099;43.406;3.698;2022-09-16T16:08:01;29.20;81.10
70548;DHT22;58099;43.406;3.698;2022-09-16T16:10:32;29.00;81.60
70548;DHT22;58099;43.406;3.698;2022-09-16T16:13:00;29.00;81.80
70548;DHT22;58099;43.406;3.698;2022-09-16T16:15:31;28.80;81.60
70548;DHT22;58099;43.406;3.698;2022-09-16T16:18:00;28.80;81.60
70548;DHT22;58099;43.406;3.698;2022-09-16T16:20:26;28.80;82.10
70548;DHT22;58099;43.406;3.698;2022-09-16T16:22:53;28.60;81.60
70548;DHT22;58099;43.406;3.698;2022-09-16T16:25:19;28.60;81.60
70548;DHT22;58099;43.406;3.698;2022-09-16T16:27:45;28.50;82.10
70548;DHT22;58099;43.406;3.698;2022-09-16T16:30:11;28.40;82.40
70548;DHT22;58099;43.406;3.698;2022-09-16T16:32:36;28.30;82.60
70548;DHT22;58099;43.406;3.698;2022-09-16T16:35:04;28.00;82.90
70548;DHT22;58099;43.406;3.698;2022-09-16T16:37:30;27.90;83.30
70548;DHT22;58099;43.406;3.698;2022-09-16T16:39:56;27.80;83.70
70548;DHT22;58099;43.406;3.698;2022-09-16T16:42:22;27.60;83.40
70548;DHT22;58099;43.406;3.698;2022-09-16T16:44:48;27.40;84.00
70548;DHT22;58099;43.406;3.698;2022-09-16T16:47:14;27.50;84.10
70548;DHT22;58099;43.406;3.698;2022-09-16T16:49:40;27.50;83.90
70548;DHT22;58099;43.406;3.698;2022-09-16T16:52:06;27.40;84.10
70548;DHT22;58099;43.406;3.698;2022-09-16T16:54:33;27.30;84.50
70548;DHT22;58099;43.406;3.698;2022-09-16T16:56:59;27.30;84.80
70548;DHT22;58099;43.406;3.698;2022-09-16T16:59:25;27.30;84.80
70548;DHT22;58099;43.406;3.698;2022-09-16T17:01:55;27.30;84.40
70548;DHT22;58099;43.406;3.698;2022-09-16T17:04:23;27.20;84.20
70548;DHT22;58099;43.406;3.698;2022-09-16T17:06:49;27.10;84.80
70548;DHT22;58099;43.406;3.698;2022-09-16T17:09:15;27.10;85.10
70548;DHT22;58099;43.406;3.698;2022-09-16T17:11:58;26.90;85.10
70548;DHT22;58099;43.406;3.698;2022-09-16T17:14:26;26.90;85.10
70548;DHT22;58099;43.406;3.698;2022-09-16T17:16:53;26.90;85.50
70548;DHT22;58099;43.406;3.698;2022-09-16T17:19:20;26.80;85.40
70548;DHT22;58099;43.406;3.698;2022-09-16T17:21:47;26.90;85.50
70548;DHT22;58099;43.406;3.698;2022-09-16T17:24:15;26.90;85.90
70548;DHT22;58099;43.406;3.698;2022-09-16T17:26:41;27.00;86.80
70548;DHT22;58099;43.406;3.698;2022-09-16T17:29:06;26.80;86.30
70548;DHT22;58099;43.406;3.698;2022-09-16T17:31:33;26.70;86.10
70548;DHT22;58099;43.406;3.698;2022-09-16T17:34:02;26.70;86.20
70548;DHT22;58099;43.406;3.698;2022-09-16T17:36:31;26.50;86.60
70548;DHT22;58099;43.406;3.698;2022-09-16T17:38:58;26.40;85.80
70548;DHT22;58099;43.406;3.698;2022-09-16T17:41:24;26.50;86.20
70548;DHT22;58099;43.406;3.698;2022-09-16T17:43:54;26.50;86.00
70548;DHT22;58099;43.406;3.698;2022-09-16T17:46:21;26.50;86.00
70548;DHT22;58099;43.406;3.698;2022-09-16T17:48:48;26.40;86.60
70548;DHT22;58099;43.406;3.698;2022-09-16T17:51:17;26.40;85.70
70548;DHT22;58099;43.406;3.698;2022-09-16T17:53:43;26.40;85.60
70548;DHT22;58099;43.406;3.698;2022-09-16T17:56:14;26.40;86.20
70548;DHT22;58099;43.406;3.698;2022-09-16T17:58:42;26.30;86.10
70548;DHT22;58099;43.406;3.698;2022-09-16T18:01:17;26.20;86.40
70548;DHT22;58099;43.406;3.698;2022-09-16T18:03:45;26.20;86.30
70548;DHT22;58099;43.406;3.698;2022-09-16T18:06:19;26.20;86.50
70548;DHT22;58099;43.406;3.698;2022-09-16T18:08:45;26.10;86.70
70548;DHT22;58099;43.406;3.698;2022-09-16T18:11:13;26.00;87.20
70548;DHT22;58099;43.406;3.698;2022-09-16T18:13:39;26.00;87.50
70548;DHT22;58099;43.406;3.698;2022-09-16T18:18:37;25.90;88.10
70548;DHT22;58099;43.406;3.698;2022-09-16T18:21:05;25.90;88.20
70548;DHT22;58099;43.406;3.698;2022-09-16T18:23:32;25.80;88.50
70548;DHT22;58099;43.406;3.698;2022-09-16T18:26:03;25.80;88.40
70548;DHT22;58099;43.406;3.698;2022-09-16T18:28:29;25.70;88.30
70548;DHT22;58099;43.406;3.698;2022-09-16T18:31:03;25.80;88.80
70548;DHT22;58099;43.406;3.698;2022-09-16T18:33:29;25.70;88.80
70548;DHT22;58099;43.406;3.698;2022-09-16T18:36:07;25.60;89.20
70548;DHT22;58099;43.406;3.698;2022-09-16T18:38:33;25.50;89.40
70548;DHT22;58099;43.406;3.698;2022-09-16T18:41:26;25.50;89.70
70548;DHT22;58099;43.406;3.698;2022-09-16T18:44:00;25.60;89.90
70548;DHT22;58099;43.406;3.698;2022-09-16T18:46:32;25.50;90.00
70548;DHT22;58099;43.406;3.698;2022-09-16T18:48:58;25.40;90.00
70548;DHT22;58099;43.406;3.698;2022-09-16T18:51:26;25.30;90.00
70548;DHT22;58099;43.406;3.698;2022-09-16T18:54:00;25.30;90.20
70548;DHT22;58099;43.406;3.698;2022-09-16T18:56:31;25.30;90.30
70548;DHT22;58099;43.406;3.698;2022-09-16T19:01:33;25.30;90.20
70548;DHT22;58099;43.406;3.698;2022-09-16T19:04:00;25.30;90.00
70548;DHT22;58099;43.406;3.698;2022-09-16T19:06:32;25.20;90.20
70548;DHT22;58099;43.406;3.698;2022-09-16T19:08:58;25.10;89.90
70548;DHT22;58099;43.406;3.698;2022-09-16T19:11:25;25.10;89.70
70548;DHT22;58099;43.406;3.698;2022-09-16T19:13:51;25.10;90.00
70548;DHT22;58099;43.406;3.698;2022-09-16T19:16:17;25.10;90.30
70548;DHT22;58099;43.406;3.698;2022-09-16T19:18:43;25.00;90.20
70548;DHT22;58099;43.406;3.698;2022-09-16T19:21:16;25.00;90.20